Nearby METAR Reports

 

KORH - Worcester, Massachusetts, USA
Distance from station: NW 4mi, 7km
Updated: Sat, 12-Jun-2021 10:54pm EDT
Clear
Clear
 Wind from SW
Wind: SW 8 mph , 13 km/h
Temperature: 59°F , 15°C
Dew Point: 54°F , 12°C
Humidity: 82%
Barometer: 29.90 inHg , 1012.5 hPa
Clouds: Clear
Visibility: 10 miles , 16 km
2021/06/13 02:54 KORH 130254Z AUTO 23007KT 10SM CLR 15/12 A2990 RMK AO2 SLP123 T01500122 51013
KBOS - Boston, Massachusetts, USA
Distance from station: ENE 42mi, 68km
Updated: Sat, 12-Jun-2021 10:54pm EDT
Few Clouds
Few Clouds
 Wind from SW
Wind: SW 10 mph , 17 km/h
Temperature: 66°F , 19°C
Dew Point: 57°F , 14°C
Humidity: 73%
Barometer: 29.86 inHg , 1011.2 hPa
Clouds: Few Clouds
Visibility: 10 miles , 16 km
Cloud details: Few Clouds 25000 ft
2021/06/13 02:54 KBOS 130254Z 22009KT 10SM FEW250 19/14 A2986 RMK AO2 SLP112 T01890144 51010
 
KCQX - Chatham, Massachusetts, USA
Distance from station: SE 102mi, 164km
Updated: Sat, 12-Jun-2021 10:52pm EDT
Clear
Clear
 Wind from SW
Wind: SW 5 mph , 7 km/h
Temperature: 59°F , 15°C
Dew Point: 55°F , 13°C
Humidity: 88%
Barometer: 29.90 inHg , 1012.5 hPa
Clouds: Clear
Visibility: 10 miles , 16 km
2021/06/13 02:52 KCQX 130252Z AUTO 23004KT 10SM CLR 15/13 A2990 RMK AO2 SLP125 T01500133 50014
KMVY - Marthas Vineyard, Massachusetts, USA
Distance from station: SE 84mi, 135km
Updated: Sat, 12-Jun-2021 11:06pm EDT
Mist, Clear
Mist, Clear
 
Temperature: 46°F , 8°C
Dew Point: 45°F , 7°C
Humidity: 93%
Summary: Mist
Clouds: Clear
Visibility: 6 miles , 10 km
2021/06/13 03:06 KMVY 130306Z AUTO 6SM R24/1200V1600FT BR CLR 08/07 RMK AO2 T00780072 $
 
KPVC - Provincetown, Massachusetts, USA
Distance from station: NNW 85mi, 136km
Updated: Sat, 12-Jun-2021 10:56pm EDT
Clear
Clear
 Wind from SSW
Wind: SSW 8 mph , 13 km/h
Temperature: 59°F , 15°C
Dew Point: 57°F , 14°C
Humidity: 94%
Barometer: 29.89 inHg , 1012.2 hPa
Clouds: Clear
Visibility: 10 miles , 16 km
2021/06/13 02:56 KPVC 130256Z AUTO 20007KT 10SM CLR 15/14 A2989 RMK AO2 SLP119 T01500144 50013
KAQW - Savoy, Massachusetts, USA
Distance from station: NNW 66mi, 106km
Updated: Sat, 12-Jun-2021 7:52pm EDT
NOT Current
Mostly cloudy
Mostly cloudy
 Wind from calm
Wind: Calm
Temperature: 72°F , 22°C
Dew Point: 57°F , 14°C
Humidity: 61%
Barometer: 29.84 inHg , 1010.5 hPa
Clouds: Mostly cloudy
Visibility: 10 miles , 16 km
Cloud details: Mostly cloudy 5500 ft
Mostly cloudy 7000 ft
2021/06/12 23:52 KAQW 122352Z AUTO 00000KT 10SM BKN055 BKN070 22/14 A2984 RMK AO2 SLP103 T02220144 10256 20217 53003
 
KIZG - Fryeburg, Maine, USA
Distance from station: NNE 133mi, 214km
Updated: Sat, 12-Jun-2021 10:54pm EDT
Clear
Clear
 Wind from calm
Wind: Calm
Temperature: 55°F , 13°C
Dew Point: 48°F , 9°C
Humidity: 77%
Barometer: 29.84 inHg , 1010.5 hPa
Clouds: Clear
Visibility: 10 miles , 16 km
2021/06/13 02:54 KIZG 130254Z AUTO 00000KT 10SM CLR 13/09 A2984 RMK AO2 SLP104 T01330094 53018
KMWN - Mt Washington, New Hampshire, USA
Distance from station: NNE 146mi, 234km
Updated: Sat, 12-Jun-2021 10:58pm EDT
Overcast
Overcast
 Wind from NNW
Wind: NNW 26 mph , 43 km/h, Gust: 41 mph , 67 km/h
Temperature: 43°F , 6°C
Wind Chill: 33°F , 1°C
Dew Point: 36°F , 2°C
Humidity: 76%
Clouds: Overcast
Visibility: 70 miles , 112 km
Cloud details: Few Clouds 4000 ft
Mostly cloudy 6000 ft
Overcast 9000 ft
2021/06/13 02:58 KMWN 130258Z 34023G36KT 70SM FEW040 BKN060 OVC090 06/02 RMK
 
KBML - Berlin, New Hampshire, USA
Distance from station: NNE 160mi, 257km
Updated: Sat, 12-Jun-2021 10:52pm EDT
Clear
Clear
 Wind from calm
Wind: Calm
Temperature: 52°F , 11°C
Dew Point: 46°F , 8°C
Humidity: 82%
Barometer: 29.86 inHg , 1011.2 hPa
Clouds: Clear
Visibility: 10 miles , 16 km
2021/06/13 02:52 KBML 130252Z AUTO 00000KT 10SM CLR 11/08 A2986 RMK AO2 SLP110 T01060078 51014